Time;durP1;ratioP1;P1;durP2;ratioP2;P2;SDS_P1;SDS_P2;PMS_P1;PMS_P2;Temp;Humidity;BMP_temperature;BMP_pressure;BME280_temperature;BME280_humidity;BME280_pressure;Samples;Min_cycle;Max_cycle;Signal;HPM_P1;HPM_P2
2023/09/02 00:01:39;;;;;;;1.08;1.00;;;;;;;18.17;100.00;100138.75;5011283;28;20041;-91
2023/09/02 00:04:04;;;;;;;0.30;0.30;;;;;;;18.11;100.00;100124.66;4992712;28;20405;-91
2023/09/02 00:06:30;;;;;;;0.55;0.55;;;;;;;18.07;100.00;100140.16;5001893;28;20397;-91
2023/09/02 00:08:55;;;;;;;0.40;0.38;;;;;;;18.01;100.00;100137.25;4992917;28;20410;-91
2023/09/02 00:11:21;;;;;;;0.20;0.20;;;;;;;17.99;100.00;100133.38;5016907;28;20338;-92
2023/09/02 00:13:46;;;;;;;0.80;0.60;;;;;;;17.88;100.00;100138.78;5004432;28;20076;-91
2023/09/02 00:16:13;;;;;;;1.23;0.75;;;;;;;17.83;100.00;100123.44;5004317;28;20493;-91
2023/09/02 00:18:39;;;;;;;0.52;0.50;;;;;;;17.81;100.00;100128.75;5004060;28;20059;-91
2023/09/02 00:21:05;;;;;;;0.25;0.25;;;;;;;17.78;100.00;100137.34;5013329;28;20128;-91
2023/09/02 00:23:31;;;;;;;0.82;0.82;;;;;;;17.70;100.00;100126.53;5030509;28;20128;-91
2023/09/02 00:25:57;;;;;;;0.65;0.57;;;;;;;17.74;100.00;100133.97;5012535;28;20045;-92
2023/09/02 00:28:23;;;;;;;0.65;0.55;;;;;;;17.70;100.00;100129.34;5027432;28;20464;-91
2023/09/02 00:30:48;;;;;;;1.40;1.02;;;;;;;17.71;100.00;100130.84;5010801;28;20060;-91
2023/09/02 00:33:14;;;;;;;0.80;0.70;;;;;;;17.67;100.00;100130.28;4996181;28;20128;-91
2023/09/02 00:35:39;;;;;;;0.38;0.35;;;;;;;17.56;100.00;100118.84;5013503;28;20438;-91
2023/09/02 00:38:05;;;;;;;1.95;0.30;;;;;;;17.63;100.00;100132.50;5005393;28;20092;-91
2023/09/02 00:40:32;;;;;;;0.20;0.20;;;;;;;17.60;100.00;100124.28;5013777;28;20040;-92
2023/09/02 00:42:59;;;;;;;2.60;1.23;;;;;;;17.63;100.00;100129.69;5000654;28;20067;-92
2023/09/02 00:45:24;;;;;;;0.20;0.20;;;;;;;17.59;100.00;100117.91;5012712;28;20040;-91
2023/09/02 00:47:51;;;;;;;0.85;0.85;;;;;;;17.58;100.00;100130.38;5010904;28;20447;-91
2023/09/02 00:50:16;;;;;;;1.25;1.10;;;;;;;17.54;100.00;100126.19;5006303;28;20463;-92
2023/09/02 00:52:42;;;;;;;0.55;0.40;;;;;;;17.55;100.00;100139.72;4999192;28;20040;-92
2023/09/02 00:55:08;;;;;;;1.02;0.98;;;;;;;17.60;100.00;100143.91;5005445;28;20049;-92
2023/09/02 00:57:34;;;;;;;0.30;0.22;;;;;;;17.61;100.00;100145.47;5013669;28;20052;-91
2023/09/02 01:00:02;;;;;;;0.55;0.55;;;;;;;17.56;100.00;100141.28;5008707;28;20044;-91
2023/09/02 01:05:32;;;;;;;0.47;0.47;;;;;;;17.37;100.00;100123.09;1287347;26;20506;-93
2023/09/02 01:07:58;;;;;;;0.25;0.25;;;;;;;17.34;100.00;100132.47;4972604;28;20052;-93
2023/09/02 01:10:24;;;;;;;0.98;0.60;;;;;;;17.28;100.00;100120.34;4994047;28;20029;-93
2023/09/02 01:12:50;;;;;;;0.52;0.52;;;;;;;17.30;100.00;100128.31;4983615;28;20033;-93
2023/09/02 01:15:16;;;;;;;0.35;0.35;;;;;;;17.36;100.00;100146.75;4989458;28;20034;-94
2023/09/02 01:17:41;;;;;;;0.45;0.45;;;;;;;17.12;100.00;100107.56;4977570;28;20033;-92
2023/09/02 01:20:09;;;;;;;0.52;0.52;;;;;;;17.21;100.00;100129.16;5007308;28;20045;-93
2023/09/02 01:22:56;;;;;;;0.45;0.45;;;;;;;17.30;100.00;100129.06;4970165;28;20053;-92
2023/09/02 01:25:53;;;;;;;0.30;0.30;;;;;;;17.31;100.00;100133.41;5021380;28;20125;-93
2023/09/02 01:28:23;;;;;;;0.30;0.30;;;;;;;17.06;100.00;100089.13;5001373;28;20056;-93
2023/09/02 01:30:53;;;;;;;2.08;0.95;;;;;;;17.10;100.00;100092.50;4983378;28;20037;-94
2023/09/02 01:33:21;;;;;;;0.70;0.40;;;;;;;17.19;100.00;100100.81;4989243;28;20069;-93
2023/09/02 01:35:50;;;;;;;0.75;0.75;;;;;;;17.18;100.00;100104.88;4969856;28;20467;-94
2023/09/02 01:38:17;;;;;;;0.43;0.35;;;;;;;17.16;100.00;100115.78;5008048;28;20041;-93
2023/09/02 01:40:43;;;;;;;0.47;0.47;;;;;;;17.26;100.00;100134.09;4990714;28;20040;-93
2023/09/02 01:43:14;;;;;;;0.40;0.40;;;;;;;17.23;100.00;100132.22;4992174;28;20038;-93
2023/09/02 01:45:40;;;;;;;0.52;0.52;;;;;;;17.08;100.00;100112.59;4973890;28;20044;-93
2023/09/02 01:48:07;;;;;;;0.30;0.30;;;;;;;17.18;100.00;100132.91;4977200;28;20033;-93
2023/09/02 01:50:34;;;;;;;0.22;0.22;;;;;;;17.06;100.00;100112.31;4985612;28;20117;-93
2023/09/02 01:53:00;;;;;;;0.57;0.47;;;;;;;16.87;100.00;100087.69;5010006;28;20032;-93
2023/09/02 01:55:26;;;;;;;0.65;0.60;;;;;;;17.02;100.00;100108.13;5007988;28;20575;-93
2023/09/02 01:57:55;;;;;;;1.10;0.65;;;;;;;17.02;100.00;100105.34;4988309;28;20515;-92
2023/09/02 02:00:20;;;;;;;0.38;0.35;;;;;;;17.18;100.00;100139.31;4982774;28;20574;-94
2023/09/02 02:02:49;;;;;;;0.85;0.63;;;;;;;16.77;100.00;100079.38;4977401;28;20049;-94
2023/09/02 02:05:15;;;;;;;0.80;0.57;;;;;;;16.91;100.00;100102.28;4972461;28;20041;-93
2023/09/02 02:07:42;;;;;;;0.30;0.20;;;;;;;16.98;100.00;100107.56;4990408;28;20492;-94
2023/09/02 02:10:11;;;;;;;0.28;0.28;;;;;;;16.73;100.00;100087.19;4972686;28;20046;-93
2023/09/02 02:12:43;;;;;;;0.52;0.52;;;;;;;16.68;100.00;100071.03;4979096;28;20034;-93
2023/09/02 02:15:11;;;;;;;0.30;0.30;;;;;;;16.88;100.00;100108.84;4953598;28;20046;-94
2023/09/02 02:17:41;;;;;;;2.10;0.55;;;;;;;16.71;100.00;100092.47;4973808;28;20042;-92
2023/09/02 02:20:09;;;;;;;0.40;0.40;;;;;;;16.62;100.00;100080.59;4973426;28;20042;-93
2023/09/02 02:22:35;;;;;;;0.40;0.40;;;;;;;16.56;100.00;100072.03;4978501;28;20037;-94
2023/09/02 02:25:00;;;;;;;0.30;0.30;;;;;;;16.56;100.00;100083.22;4988854;28;20046;-94
2023/09/02 02:27:26;;;;;;;0.28;0.28;;;;;;;16.56;100.00;100086.03;4984228;28;20574;-93
2023/09/02 02:29:52;;;;;;;0.75;0.50;;;;;;;16.58;100.00;100080.75;4984314;28;20046;-95
2023/09/02 02:32:17;;;;;;;0.70;0.70;;;;;;;16.64;100.00;100084.44;4971509;28;20046;-94
2023/09/02 02:34:43;;;;;;;1.08;0.80;;;;;;;16.61;100.00;100077.00;4988970;28;20575;-94
2023/09/02 02:37:09;;;;;;;0.32;0.32;;;;;;;16.75;100.00;100093.06;4999790;28;20052;-94
2023/09/02 02:39:35;;;;;;;0.20;0.20;;;;;;;16.53;100.00;100067.38;4981421;28;20137;-94
2023/09/02 02:42:01;;;;;;;0.65;0.65;;;;;;;16.81;100.00;100114.84;4964914;28;20581;-94
2023/09/02 02:44:26;;;;;;;0.22;0.22;;;;;;;16.61;100.00;100084.63;4964700;28;20034;-94
2023/09/02 02:46:52;;;;;;;0.82;0.80;;;;;;;16.88;100.00;100131.28;4954373;28;20057;-93
2023/09/02 02:49:17;;;;;;;1.17;1.13;;;;;;;16.71;100.00;100100.09;4946478;28;20042;-93
2023/09/02 02:51:43;;;;;;;6.22;1.55;;;;;;;16.62;100.00;100089.75;4992975;28;20076;-93
2023/09/02 02:54:09;;;;;;;1.65;0.75;;;;;;;16.81;100.00;100110.00;4976102;28;20041;-93
2023/09/02 02:56:35;;;;;;;1.38;0.50;;;;;;;16.52;100.00;100077.03;4951700;28;20146;-94
2023/09/02 02:59:00;;;;;;;0.38;0.38;;;;;;;16.62;100.00;100109.34;4961525;28;20044;-94
2023/09/02 03:01:26;;;;;;;1.25;1.05;;;;;;;16.63;100.00;100116.50;4958089;28;20034;-94
2023/09/02 03:03:53;;;;;;;0.30;0.25;;;;;;;16.50;100.00;100093.53;4951342;28;20038;-94
2023/09/02 03:06:20;;;;;;;0.70;0.70;;;;;;;16.52;100.00;100099.44;4956604;28;20049;-95
2023/09/02 03:08:46;;;;;;;0.25;0.25;;;;;;;16.51;100.00;100109.06;4960854;28;20046;-93
2023/09/02 03:11:11;;;;;;;0.25;0.25;;;;;;;16.59;100.00;100123.53;4975303;28;20264;-93
2023/09/02 03:13:37;;;;;;;0.30;0.30;;;;;;;16.66;100.00;100134.41;4961825;28;20042;-93
2023/09/02 03:16:10;;;;;;;1.40;0.57;;;;;;;16.30;100.00;100070.94;4976839;28;20128;-93
2023/09/02 03:18:36;;;;;;;2.05;1.75;;;;;;;16.50;100.00;100110.31;4966340;28;20137;-94
2023/09/02 03:21:03;;;;;;;0.47;0.47;;;;;;;16.25;100.00;100077.22;4970173;28;20100;-94
2023/09/02 03:23:28;;;;;;;0.52;0.52;;;;;;;16.56;100.00;100128.03;4989081;28;20038;-92
2023/09/02 03:25:54;;;;;;;0.40;0.40;;;;;;;16.30;100.00;100101.72;4975442;28;20038;-93
2023/09/02 03:28:20;;;;;;;0.10;0.10;;;;;;;16.34;100.00;100113.53;4977846;28;20038;-92
2023/09/02 03:30:45;;;;;;;0.25;0.25;;;;;;;16.22;100.00;100109.69;4977725;28;20033;-92
2023/09/02 03:33:14;;;;;;;1.00;0.63;;;;;;;16.24;100.00;100114.84;4992956;28;20049;-92
2023/09/02 03:35:41;;;;;;;1.27;1.17;;;;;;;16.37;100.00;100132.19;4989889;28;20041;-91
2023/09/02 03:38:06;;;;;;;0.30;0.25;;;;;;;16.41;100.00;100132.00;4974399;28;20096;-92
2023/09/02 03:40:33;;;;;;;1.35;1.17;;;;;;;16.34;100.00;100128.31;5006100;28;20046;-91
2023/09/02 03:42:58;;;;;;;0.52;0.52;;;;;;;16.24;100.00;100120.44;4991338;28;20054;-92
2023/09/02 03:45:24;;;;;;;1.83;1.15;;;;;;;16.12;100.00;100113.81;4960455;28;20112;-92
2023/09/02 03:47:51;;;;;;;0.88;0.85;;;;;;;16.09;100.00;100111.19;4993177;28;20049;-93
2023/09/02 03:50:25;;;;;;;0.95;0.77;;;;;;;16.13;100.00;100114.59;4974276;28;20570;-91
2023/09/02 03:52:52;;;;;;;0.10;0.10;;;;;;;16.20;100.00;100122.63;4991299;28;20046;-93
2023/09/02 03:55:18;;;;;;;0.65;0.52;;;;;;;16.30;100.00;100135.31;4961247;28;20522;-92
2023/09/02 03:57:43;;;;;;;0.52;0.40;;;;;;;16.31;100.00;100137.66;4987506;28;20038;-93
2023/09/02 04:00:10;;;;;;;0.17;0.17;;;;;;;16.26;100.00;100137.50;5009392;28;20029;-92
2023/09/02 04:02:42;;;;;;;0.73;0.60;;;;;;;16.43;100.00;100151.91;4987055;28;20046;-93
2023/09/02 04:05:09;;;;;;;0.40;0.40;;;;;;;16.38;100.00;100150.50;4991448;28;20030;-94
2023/09/02 04:07:35;;;;;;;0.20;0.20;;;;;;;16.27;100.00;100139.06;4977538;28;20046;-93
2023/09/02 04:10:01;;;;;;;0.52;0.52;;;;;;;16.33;100.00;100165.97;5008769;28;20046;-93
2023/09/02 04:12:26;;;;;;;0.85;0.63;;;;;;;16.34;100.00;100161.88;4992052;28;20045;-93
2023/09/02 04:14:52;;;;;;;0.13;0.13;;;;;;;16.29;100.00;100164.56;4994790;28;20046;-93
2023/09/02 04:17:18;;;;;;;0.50;0.50;;;;;;;16.31;100.00;100174.03;4977885;28;20038;-93
2023/09/02 04:19:45;;;;;;;0.28;0.20;;;;;;;15.97;100.00;100137.34;4984097;28;20570;-93
2023/09/02 04:22:10;;;;;;;0.10;0.10;;;;;;;16.18;100.00;100167.09;4998679;28;20042;-93
2023/09/02 04:24:37;;;;;;;0.85;0.73;;;;;;;16.12;100.00;100166.97;4954839;28;20041;-92
2023/09/02 04:27:03;;;;;;;0.47;0.30;;;;;;;16.17;100.00;100177.53;4968062;28;20038;-92
2023/09/02 04:29:29;;;;;;;1.05;0.93;;;;;;;16.20;100.00;100184.19;4993243;28;20057;-93
2023/09/02 04:31:55;;;;;;;0.13;0.13;;;;;;;16.17;100.00;100182.34;4973122;28;20046;-92
2023/09/02 04:34:24;;;;;;;0.30;0.30;;;;;;;16.26;100.00;100183.06;4953502;28;20156;-93
2023/09/02 04:36:51;;;;;;;1.17;0.77;;;;;;;16.19;100.00;100177.03;4990987;28;20120;-93
2023/09/02 04:39:18;;;;;;;0.88;0.82;;;;;;;16.33;100.00;100187.56;4968622;28;20133;-93
2023/09/02 04:41:45;;;;;;;1.48;1.10;;;;;;;16.11;100.00;100161.84;4959163;28;20046;-92
2023/09/02 04:44:16;;;;;;;1.13;0.77;;;;;;;16.12;100.00;100160.59;4949952;28;20055;-93
2023/09/02 04:46:42;;;;;;;0.93;0.93;;;;;;;16.20;100.00;100178.59;4966690;28;20671;-94
2023/09/02 04:49:08;;;;;;;0.70;0.68;;;;;;;16.18;100.00;100164.28;4955642;28;20114;-93
2023/09/02 04:51:33;;;;;;;0.90;0.82;;;;;;;16.29;100.00;100190.56;4949629;28;20038;-92
2023/09/02 04:53:59;;;;;;;0.20;0.20;;;;;;;16.25;100.00;100178.75;4959068;28;20034;-93
2023/09/02 04:56:25;;;;;;;0.80;0.80;;;;;;;16.21;100.00;100163.38;4977426;28;20412;-93
2023/09/02 04:58:52;;;;;;;0.47;0.45;;;;;;;16.49;100.00;100195.59;4976076;28;20046;-91
2023/09/02 05:01:20;;;;;;;0.73;0.57;;;;;;;16.44;100.00;100182.22;4988593;28;20084;-92
2023/09/02 05:03:51;;;;;;;0.28;0.10;;;;;;;16.63;100.00;100194.13;4987162;28;20132;-92
2023/09/02 05:06:17;;;;;;;0.65;0.63;;;;;;;16.52;100.00;100161.03;5005004;28;20117;-92
2023/09/02 05:08:45;;;;;;;0.55;0.50;;;;;;;16.77;100.00;100202.63;4992390;28;20104;-92
2023/09/02 05:11:13;;;;;;;0.40;0.40;;;;;;;16.81;100.00;100194.06;4988007;28;20447;-92
2023/09/02 05:13:40;;;;;;;0.82;0.80;;;;;;;16.94;100.00;100203.00;4972067;28;20049;-93
2023/09/02 05:16:06;;;;;;;0.95;0.88;;;;;;;16.94;100.00;100191.78;4981504;28;20046;-92
2023/09/02 05:18:32;;;;;;;0.38;0.38;;;;;;;17.11;100.00;100200.53;4970494;28;20048;-94
2023/09/02 05:20:58;;;;;;;0.10;0.10;;;;;;;17.06;100.00;100176.00;4985077;28;20033;-92
2023/09/02 05:23:24;;;;;;;0.28;0.28;;;;;;;17.08;100.00;100165.84;4988317;28;20764;-92
2023/09/02 05:25:56;;;;;;;0.30;0.30;;;;;;;17.37;100.00;100195.97;4991320;28;20526;-91
2023/09/02 05:28:23;;;;;;;0.45;0.38;;;;;;;17.27;100.00;100192.47;4974105;28;20525;-91
2023/09/02 05:30:51;;;;;;;1.30;0.68;;;;;;;17.39;100.00;100210.28;4969615;28;20034;-92
2023/09/02 05:33:16;;;;;;;0.80;0.80;;;;;;;17.34;100.00;100194.16;4967681;28;20395;-92
2023/09/02 05:35:45;;;;;;;0.40;0.40;;;;;;;17.31;100.00;100180.31;4987661;28;20503;-92
2023/09/02 05:38:10;;;;;;;0.50;0.50;;;;;;;17.67;100.00;100220.03;4958865;28;20110;-93
2023/09/02 05:40:40;;;;;;;0.95;0.88;;;;;;;17.86;100.00;100226.28;4981208;28;20043;-92
2023/09/02 05:43:06;;;;;;;0.25;0.25;;;;;;;17.84;100.00;100199.94;4999507;28;20141;-91
2023/09/02 05:45:31;;;;;;;0.28;0.22;;;;;;;17.79;100.00;100195.03;5003858;28;20105;-93
2023/09/02 05:47:57;;;;;;;0.22;0.22;;;;;;;18.04;100.00;100206.44;4989886;28;20169;-92
2023/09/02 05:50:31;;;;;;;0.15;0.15;;;;;;;18.20;100.00;100227.63;4975522;28;20046;-92
2023/09/02 05:52:57;;;;;;;0.68;0.63;;;;;;;18.13;100.00;100205.56;4975434;28;20451;-92
2023/09/02 05:55:22;;;;;;;0.20;0.20;;;;;;;18.44;100.00;100233.91;4984589;28;20487;-91
2023/09/02 05:57:48;;;;;;;1.95;0.60;;;;;;;18.50;100.00;100229.16;4985870;28;20046;-92
2023/09/02 06:00:14;;;;;;;0.60;0.50;;;;;;;18.61;100.00;100208.91;4964208;28;20036;-93
2023/09/02 06:02:42;;;;;;;0.52;0.50;;;;;;;19.02;100.00;100241.44;4989177;28;20121;-92
2023/09/02 06:05:08;;;;;;;0.75;0.60;;;;;;;19.09;100.00;100214.94;4998037;28;20048;-93
2023/09/02 06:07:33;;;;;;;0.73;0.63;;;;;;;19.36;100.00;100225.00;5000011;28;20056;-93
2023/09/02 06:09:59;;;;;;;0.55;0.55;;;;;;;19.67;100.00;100232.81;4962551;28;20039;-93
2023/09/02 06:12:24;;;;;;;0.60;0.60;;;;;;;19.90;100.00;100237.41;4996444;28;20539;-93
2023/09/02 06:14:50;;;;;;;0.25;0.25;;;;;;;19.88;100.00;100214.59;5005104;28;20530;-92
2023/09/02 06:17:16;;;;;;;0.28;0.28;;;;;;;20.12;100.00;100226.34;5006912;28;20049;-92
2023/09/02 06:19:41;;;;;;;0.30;0.30;;;;;;;20.35;100.00;100235.78;4980064;28;20049;-93
2023/09/02 06:22:07;;;;;;;0.40;0.40;;;;;;;20.40;100.00;100227.41;4974253;28;20054;-93
2023/09/02 06:24:32;;;;;;;0.10;0.10;;;;;;;20.47;100.00;100204.41;4972659;28;20100;-93
2023/09/02 06:27:03;;;;;;;0.85;0.85;;;;;;;20.84;100.00;100231.78;4986932;28;20488;-90
2023/09/02 06:29:32;;;;;;;0.32;0.32;;;;;;;20.93;100.00;100240.06;5010361;28;20092;-90
2023/09/02 06:31:58;;;;;;;0.13;0.10;;;;;;;21.08;100.00;100223.72;4991340;28;20041;-90
2023/09/02 06:34:24;;;;;;;0.43;0.43;;;;;;;21.00;100.00;100208.56;4985717;28;20057;-90
2023/09/02 06:36:49;;;;;;;0.98;0.60;;;;;;;21.28;100.00;100237.72;4953735;28;20038;-89
2023/09/02 06:39:15;;;;;;;0.20;0.20;;;;;;;21.56;100.00;100237.03;4982307;28;20038;-89
2023/09/02 06:41:42;;;;;;;0.68;0.68;;;;;;;21.51;100.00;100218.06;5008663;28;20045;-90
2023/09/02 06:44:10;;;;;;;0.52;0.52;;;;;;;21.77;100.00;100249.69;4972279;28;20042;-90
2023/09/02 06:46:38;;;;;;;1.58;1.10;;;;;;;21.80;100.00;100232.50;5003066;28;20060;-90
2023/09/02 06:49:05;;;;;;;0.68;0.47;;;;;;;21.91;100.00;100225.34;4990957;28;20046;-90
2023/09/02 06:51:31;;;;;;;0.55;0.55;;;;;;;22.19;100.00;100237.47;4990970;28;20411;-90
2023/09/02 06:53:57;;;;;;;1.10;1.00;;;;;;;22.32;100.00;100243.41;4997555;28;20064;-89
2023/09/02 06:56:22;;;;;;;0.95;0.60;;;;;;;22.49;100.00;100266.75;4994419;28;20414;-90
2023/09/02 06:58:49;;;;;;;0.63;0.45;;;;;;;22.69;100.00;100249.56;5002755;28;20451;-90
2023/09/02 07:01:22;;;;;;;0.57;0.52;;;;;;;22.90;100.00;100258.53;5008219;28;20066;-90
2023/09/02 07:03:48;;;;;;;0.40;0.40;;;;;;;23.02;100.00;100271.38;4992336;28;20041;-90
2023/09/02 07:06:15;;;;;;;0.52;0.52;;;;;;;23.14;100.00;100266.44;4989820;28;20046;-90
2023/09/02 07:08:44;;;;;;;0.50;0.50;;;;;;;23.21;100.00;100269.50;4994369;28;20104;-90
2023/09/02 07:11:10;;;;;;;0.22;0.22;;;;;;;23.30;100.00;100257.13;5003672;28;20045;-90
2023/09/02 07:13:36;;;;;;;0.45;0.45;;;;;;;23.58;100.00;100276.88;4987349;28;20491;-90
2023/09/02 07:16:03;;;;;;;0.77;0.70;;;;;;;23.56;100.00;100254.75;5005442;28;20057;-90
2023/09/02 07:18:29;;;;;;;0.43;0.43;;;;;;;23.82;100.00;100268.50;4993789;28;20033;-90
2023/09/02 07:21:04;;;;;;;1.30;0.68;;;;;;;24.06;100.00;100276.38;5011333;28;20042;-90
2023/09/02 07:23:31;;;;;;;0.65;0.63;;;;;;;24.50;100.00;100280.97;4991539;28;20042;-90
2023/09/02 07:25:59;;;;;;;0.10;0.10;;;;;;;24.24;100.00;100252.31;5011471;28;20030;-90
2023/09/02 07:28:28;;;;;;;0.55;0.55;;;;;;;24.61;100.00;100273.16;4990387;28;20085;-90
2023/09/02 07:30:58;;;;;;;0.25;0.25;;;;;;;24.68;100.00;100271.00;4989950;28;20044;-90
2023/09/02 07:33:24;;;;;;;0.80;0.80;;;;;;;24.73;100.00;100259.63;4982941;28;20224;-90
2023/09/02 07:35:50;;;;;;;2.50;1.20;;;;;;;24.97;100.00;100285.22;5013336;28;20038;-90
2023/09/02 07:38:15;;;;;;;0.30;0.30;;;;;;;25.11;100.00;100277.59;5008418;28;20053;-90
2023/09/02 07:40:41;;;;;;;1.35;1.15;;;;;;;24.85;100.00;100254.66;5011769;28;20046;-90
2023/09/02 07:43:06;;;;;;;0.47;0.47;;;;;;;25.27;100.00;100281.56;5004900;28;20038;-89
2023/09/02 07:45:32;;;;;;;0.63;0.63;;;;;;;25.49;100.00;100279.22;5007593;28;20030;-91
2023/09/02 07:47:57;;;;;;;0.35;0.35;;;;;;;25.63;96.74;100288.63;5009451;28;20053;-89
2023/09/02 07:50:23;;;;;;;0.80;0.80;;;;;;;25.74;98.25;100299.84;5010052;28;20048;-90
2023/09/02 07:52:49;;;;;;;0.60;0.43;;;;;;;25.89;98.17;100302.22;4993684;28;20034;-90
2023/09/02 07:55:14;;;;;;;0.90;0.90;;;;;;;25.36;96.90;100278.34;4983805;28;20038;-90
2023/09/02 07:57:40;;;;;;;2.80;0.93;;;;;;;25.42;97.38;100267.69;4982081;28;20033;-90
2023/09/02 08:00:07;;;;;;;0.80;0.73;;;;;;;25.97;95.32;100298.25;4989262;28;20046;-90
2023/09/02 08:02:37;;;;;;;0.30;0.30;;;;;;;26.08;93.42;100293.72;5007513;28;20077;-90
2023/09/02 08:05:03;;;;;;;0.50;0.50;;;;;;;26.15;93.45;100310.16;4992945;28;20085;-90
2023/09/02 08:07:31;;;;;;;0.70;0.63;;;;;;;26.50;93.01;100301.38;5010431;28;20050;-90
2023/09/02 08:09:56;;;;;;;4.57;1.15;;;;;;;26.20;90.03;100289.44;5010202;28;20034;-90
2023/09/02 08:12:22;;;;;;;0.38;0.38;;;;;;;25.92;92.96;100284.88;4998479;28;20427;-90
2023/09/02 08:14:47;;;;;;;0.68;0.68;;;;;;;26.18;93.92;100306.22;4993321;28;20074;-90
2023/09/02 08:17:14;;;;;;;0.63;0.55;;;;;;;26.44;93.37;100312.84;5011094;28;20056;-90
2023/09/02 08:19:40;;;;;;;0.85;0.77;;;;;;;26.74;90.39;100309.75;5008439;28;20057;-90
2023/09/02 08:22:05;;;;;;;0.63;0.63;;;;;;;26.82;87.68;100310.66;4986739;28;20070;-89
2023/09/02 08:24:31;;;;;;;1.55;0.93;;;;;;;26.74;87.40;100315.44;5010241;28;20107;-90
2023/09/02 08:26:56;;;;;;;0.80;0.70;;;;;;;26.96;85.55;100313.56;4968637;28;20518;-90
2023/09/02 08:29:22;;;;;;;1.20;0.50;;;;;;;26.96;87.38;100302.19;5009908;28;20026;-90
2023/09/02 08:31:54;;;;;;;0.60;0.60;;;;;;;27.14;84.18;100309.84;5010820;28;20048;-89
2023/09/02 08:34:20;;;;;;;0.30;0.30;;;;;;;27.51;84.52;100317.47;4993367;28;20478;-90
2023/09/02 08:36:45;;;;;;;0.52;0.50;;;;;;;27.34;83.24;100307.13;4992736;28;20128;-90
2023/09/02 08:39:11;;;;;;;0.50;0.50;;;;;;;27.54;81.82;100296.44;4993072;28;20048;-90
2023/09/02 08:41:38;;;;;;;0.38;0.38;;;;;;;27.77;81.50;100317.44;4993318;28;20052;-90
2023/09/02 08:44:04;;;;;;;1.02;0.77;;;;;;;27.73;80.25;100317.00;4984147;28;20035;-90
2023/09/02 08:46:36;;;;;;;1.05;0.52;;;;;;;27.92;81.71;100300.53;4956437;28;20046;-90
2023/09/02 08:49:01;;;;;;;0.70;0.70;;;;;;;27.92;75.91;100291.22;4973617;28;20101;-90
2023/09/02 08:51:28;;;;;;;2.03;0.65;;;;;;;27.79;75.98;100304.16;4976599;28;20046;-90
2023/09/02 08:53:54;;;;;;;0.60;0.60;;;;;;;28.03;76.67;100299.50;4958503;28;20089;-90
2023/09/02 08:56:21;;;;;;;0.68;0.68;;;;;;;28.35;76.09;100314.34;4962235;28;20042;-90
2023/09/02 08:58:46;;;;;;;0.57;0.57;;;;;;;27.96;77.03;100294.47;4971615;28;20062;-90
2023/09/02 09:01:17;;;;;;;0.32;0.32;;;;;;;28.06;77.17;100298.41;4976291;28;20463;-90
2023/09/02 09:03:45;;;;;;;1.38;1.27;;;;;;;28.59;74.68;100316.88;4972426;28;20563;-90
2023/09/02 09:06:11;;;;;;;0.88;0.80;;;;;;;28.64;75.57;100320.91;4992507;28;20104;-90
2023/09/02 09:08:37;;;;;;;0.93;0.50;;;;;;;28.94;74.67;100323.31;4976551;28;20100;-90
2023/09/02 09:11:05;;;;;;;0.65;0.60;;;;;;;29.13;74.27;100320.97;4973043;28;20034;-90
2023/09/02 09:13:30;;;;;;;0.88;0.80;;;;;;;28.95;70.19;100316.28;4971156;28;20415;-90
2023/09/02 09:15:56;;;;;;;0.88;0.65;;;;;;;28.48;72.34;100288.63;4963229;28;20030;-90
2023/09/02 09:18:22;;;;;;;0.80;0.80;;;;;;;28.50;75.26;100311.66;4970823;28;20142;-90
2023/09/02 09:20:48;;;;;;;1.90;0.57;;;;;;;28.68;70.76;100296.41;4963305;28;20042;-90
2023/09/02 09:23:13;;;;;;;0.50;0.50;;;;;;;28.87;70.94;100312.59;4959973;28;20431;-90
2023/09/02 09:25:39;;;;;;;0.65;0.65;;;;;;;28.93;69.72;100296.84;4960283;28;20138;-90
2023/09/02 09:28:09;;;;;;;1.15;1.05;;;;;;;28.98;70.22;100313.06;4959338;28;20038;-90
2023/09/02 09:30:34;;;;;;;0.70;0.70;;;;;;;28.99;70.85;100314.63;4988128;28;20121;-90
2023/09/02 09:33:01;;;;;;;0.40;0.40;;;;;;;29.34;66.77;100323.81;4970736;28;20130;-90
2023/09/02 09:35:27;;;;;;;1.05;0.95;;;;;;;29.03;69.35;100291.41;4975854;28;20522;-90
2023/09/02 09:37:54;;;;;;;0.50;0.50;;;;;;;29.32;68.07;100295.06;4959687;28;20049;-90
2023/09/02 09:40:32;;;;;;;1.20;0.88;;;;;;;29.36;66.34;100313.34;4957356;28;20038;-90
2023/09/02 09:42:59;;;;;;;2.20;1.17;;;;;;;29.40;68.73;100325.19;4986492;28;20174;-90
2023/09/02 09:45:26;;;;;;;0.57;0.57;;;;;;;29.52;66.04;100323.56;5009772;28;20154;-90
2023/09/02 09:47:51;;;;;;;0.45;0.45;;;;;;;29.78;65.08;100307.50;4990773;28;20065;-91
2023/09/02 09:50:18;;;;;;;0.65;0.63;;;;;;;30.01;64.51;100320.59;4991925;28;20038;-90
2023/09/02 09:53:04;;;;;;;0.68;0.68;;;;;;;29.95;60.30;100317.13;4957646;28;20042;-90
2023/09/02 09:55:30;;;;;;;0.50;0.50;;;;;;;30.05;63.36;100314.50;4958894;28;20057;-89
2023/09/02 09:57:57;;;;;;;0.60;0.60;;;;;;;30.24;61.34;100317.03;4969526;28;20038;-90
2023/09/02 10:00:23;;;;;;;0.65;0.65;;;;;;;30.59;60.63;100318.28;4970127;28;20030;-89
2023/09/02 10:02:51;;;;;;;0.70;0.70;;;;;;;30.42;58.19;100308.09;4980475;28;20026;-90
2023/09/02 10:05:26;;;;;;;0.45;0.45;;;;;;;30.71;55.09;100287.94;4973567;28;20038;-90
2023/09/02 10:08:03;;;;;;;0.50;0.50;;;;;;;31.11;53.60;100306.09;4976295;28;20101;-91
2023/09/02 10:10:34;;;;;;;0.60;0.60;;;;;;;31.18;54.26;100299.59;4954005;28;20038;-90
2023/09/02 10:13:00;;;;;;;0.82;0.77;;;;;;;31.04;52.82;100306.88;4961633;28;20092;-90
2023/09/02 10:15:27;;;;;;;0.60;0.60;;;;;;;30.72;51.65;100315.25;4957897;28;20060;-90
2023/09/02 10:18:00;;;;;;;0.55;0.55;;;;;;;30.76;54.31;100302.06;4962541;28;20042;-90
2023/09/02 10:20:35;;;;;;;0.85;0.75;;;;;;;30.64;50.70;100288.72;4989602;28;20042;-90
2023/09/02 10:23:05;;;;;;;0.73;0.73;;;;;;;30.85;50.89;100312.97;4971553;28;20487;-90
2023/09/02 10:25:50;;;;;;;1.58;0.93;;;;;;;30.91;50.77;100307.03;4952506;28;20097;-90
2023/09/02 10:28:20;;;;;;;5.32;0.90;;;;;;;31.12;51.89;100298.28;4986109;28;20050;-90
2023/09/02 10:30:48;;;;;;;1.40;0.80;;;;;;;31.56;49.59;100307.38;4992617;28;20046;-90
2023/09/02 10:33:36;;;;;;;0.77;0.77;;;;;;;31.14;46.46;100298.47;4996868;28;20049;-90
2023/09/02 10:36:05;;;;;;;1.17;1.08;;;;;;;31.31;47.62;100287.16;4982726;28;20042;-90
2023/09/02 10:38:37;;;;;;;0.45;0.45;;;;;;;31.32;46.95;100305.88;4976217;28;20080;-90
2023/09/02 10:41:14;;;;;;;0.50;0.50;;;;;;;31.34;46.73;100309.69;4962030;28;20475;-89
2023/09/02 10:43:40;;;;;;;0.50;0.50;;;;;;;31.72;44.73;100303.88;5011642;28;20064;-91
2023/09/02 10:46:08;;;;;;;0.50;0.50;;;;;;;31.40;44.21;100313.13;4975752;28;20161;-90
2023/09/02 10:48:35;;;;;;;0.55;0.55;;;;;;;31.63;46.24;100306.59;4971312;28;20060;-90
2023/09/02 10:51:02;;;;;;;1.40;1.30;;;;;;;31.56;43.76;100307.38;4965760;28;20054;-90
2023/09/02 10:53:53;;;;;;;0.40;0.40;;;;;;;31.19;44.90;100315.44;4988236;28;20125;-90
2023/09/02 10:56:35;;;;;;;0.60;0.60;;;;;;;31.25;43.43;100313.16;4962772;28;20088;-90
2023/09/02 10:59:03;;;;;;;0.57;0.55;;;;;;;31.10;45.68;100312.41;4974724;28;20043;-90
2023/09/02 11:01:49;;;;;;;0.50;0.45;;;;;;;31.41;44.70;100314.66;4985352;28;20038;-90
2023/09/02 11:04:40;;;;;;;0.77;0.77;;;;;;;31.43;45.23;100314.84;4976906;28;20077;-90
2023/09/02 11:07:18;;;;;;;1.30;0.68;;;;;;;31.33;43.65;100313.91;4993943;28;20096;-91
2023/09/02 11:09:51;;;;;;;1.33;1.10;;;;;;;30.95;44.40;100307.41;5011784;28;20076;-90
2023/09/02 11:12:16;;;;;;;0.47;0.47;;;;;;;30.72;45.99;100306.66;4961671;28;20042;-90
2023/09/02 11:15:07;;;;;;;1.00;0.90;;;;;;;30.91;46.06;100312.75;4994046;28;20532;-91
2023/09/02 11:17:34;;;;;;;0.50;0.45;;;;;;;31.12;45.64;100316.22;4991517;28;20042;-91
2023/09/02 11:20:08;;;;;;;0.50;0.50;;;;;;;31.18;45.10;100302.44;4972877;28;20723;-91
2023/09/02 11:22:57;;;;;;;0.85;0.85;;;;;;;31.64;44.22;100319.59;4953571;28;20054;-90
2023/09/02 11:25:32;;;;;;;0.50;0.50;;;;;;;31.80;43.01;100324.69;4977809;28;20046;-90